createdAt,value
2018-03-22T00:01:32.438Z,17.40
2018-03-22T00:04:01.229Z,17.20
2018-03-22T00:06:29.919Z,17.83
2018-03-22T00:08:58.605Z,17.37
2018-03-22T00:11:27.285Z,17.23
2018-03-22T00:13:55.871Z,15.80
2018-03-22T00:16:24.553Z,17.03
2018-03-22T00:18:53.284Z,17.53
2018-03-22T00:21:22.748Z,18.50
2018-03-22T00:23:51.422Z,17.23
2018-03-22T00:26:20.218Z,17.47
2018-03-22T00:28:48.905Z,17.23
2018-03-22T00:31:17.699Z,15.33
2018-03-22T00:33:46.443Z,16.20
2018-03-22T00:36:15.170Z,15.20
2018-03-22T00:38:43.904Z,15.90
2018-03-22T00:41:12.897Z,15.73
2018-03-22T00:43:41.458Z,15.20
2018-03-22T00:46:10.158Z,14.57
2018-03-22T00:48:39.673Z,15.67
2018-03-22T00:51:10.147Z,16.13
2018-03-22T00:53:38.834Z,17.67
2018-03-22T00:56:07.827Z,20.67
2018-03-22T00:58:36.473Z,17.60
2018-03-22T01:01:05.198Z,16.90
2018-03-22T01:03:34.184Z,18.10
2018-03-22T01:06:02.877Z,15.60
2018-03-22T01:08:31.465Z,15.77
2018-03-22T01:11:00.248Z,16.03
2018-03-22T01:13:28.934Z,17.03
2018-03-22T01:15:57.529Z,14.30
2018-03-22T01:18:26.265Z,15.77
2018-03-22T01:20:54.992Z,15.93
2018-03-22T01:23:23.626Z,15.37
2018-03-22T01:25:53.219Z,15.57
2018-03-22T01:28:22.738Z,15.67
2018-03-22T01:30:52.156Z,16.60
2018-03-22T01:33:21.048Z,16.90
2018-03-22T01:35:49.674Z,17.60
2018-03-22T01:38:18.251Z,16.90
2018-03-22T01:40:46.998Z,18.30
2018-03-22T01:43:15.734Z,17.20
2018-03-22T01:45:44.411Z,17.37
2018-03-22T01:48:13.204Z,17.83
2018-03-22T01:50:41.891Z,18.80
2018-03-22T01:53:13.892Z,19.40
2018-03-22T01:55:43.610Z,18.00
2018-03-22T01:58:12.300Z,20.27
2018-03-22T02:00:40.936Z,20.10
2018-03-22T02:03:09.716Z,19.53
2018-03-22T02:05:38.360Z,20.10
2018-03-22T02:08:07.089Z,19.83
2018-03-22T02:10:36.512Z,19.30
2018-03-22T02:13:05.282Z,18.60
2018-03-22T02:15:34.025Z,22.57
2018-03-22T02:18:02.753Z,21.53
2018-03-22T02:20:31.549Z,19.20
2018-03-22T02:23:00.228Z,20.40
2018-03-22T02:25:29.228Z,21.63
2018-03-22T02:27:57.913Z,18.10
2018-03-22T02:30:26.495Z,17.37
2018-03-22T02:32:55.573Z,17.43
2018-03-22T02:35:24.279Z,17.13
2018-03-22T02:37:52.965Z,17.97
2018-03-22T02:40:22.007Z,16.83
2018-03-22T02:42:50.793Z,18.43
2018-03-22T02:45:20.249Z,19.13
2018-03-22T02:47:49.186Z,17.13
2018-03-22T02:50:18.649Z,20.23
2018-03-22T02:52:47.330Z,18.00
2018-03-22T02:55:16.061Z,17.40
2018-03-22T02:57:45.523Z,15.70
2018-03-22T03:00:14.296Z,17.63
2018-03-22T03:02:43.301Z,15.73
2018-03-22T03:05:11.990Z,15.70
2018-03-22T03:07:40.723Z,15.23
2018-03-22T03:10:09.456Z,14.77
2018-03-22T03:12:38.142Z,16.83
2018-03-22T03:15:06.779Z,16.37
2018-03-22T03:17:36.595Z,16.17
2018-03-22T03:20:05.288Z,16.20
2018-03-22T03:22:34.031Z,15.57
2018-03-22T03:25:03.523Z,18.30
2018-03-22T03:27:32.210Z,16.70
2018-03-22T03:30:00.856Z,14.67
2018-03-22T03:32:29.779Z,17.53
2018-03-22T03:34:58.369Z,15.17
2018-03-22T03:37:27.113Z,16.43
2018-03-22T03:39:56.106Z,19.50
2018-03-22T03:42:24.830Z,55.80
2018-03-22T03:44:53.515Z,49.37
2018-03-22T03:47:22.409Z,26.23
2018-03-22T03:49:50.962Z,44.30
2018-03-22T03:52:19.525Z,20.30
2018-03-22T03:54:48.133Z,17.77
2018-03-22T03:57:16.689Z,17.20
2018-03-22T03:59:46.014Z,14.87
2018-03-22T04:02:14.772Z,15.73
2018-03-22T04:04:44.102Z,53.73
2018-03-22T04:07:12.662Z,66.13
2018-03-22T04:09:42.125Z,16.33
2018-03-22T04:12:10.689Z,14.60
2018-03-22T04:14:39.253Z,13.00
2018-03-22T04:17:07.994Z,11.83
2018-03-22T04:19:36.641Z,12.47
2018-03-22T04:22:05.211Z,13.10
2018-03-22T04:24:33.828Z,14.77
2018-03-22T04:27:02.411Z,16.80
2018-03-22T04:29:30.985Z,18.90
2018-03-22T04:31:59.608Z,19.73
2018-03-22T04:34:28.945Z,12.67
2018-03-22T04:36:57.522Z,11.07
2018-03-22T04:39:26.253Z,10.30
2018-03-22T04:41:54.824Z,12.07
2018-03-22T04:44:24.174Z,12.17
2018-03-22T04:46:53.638Z,13.20
2018-03-22T04:49:22.216Z,13.80
2018-03-22T04:51:50.776Z,15.20
2018-03-22T04:54:19.592Z,13.00
2018-03-22T04:56:48.157Z,13.60
2018-03-22T04:59:16.724Z,12.13
2018-03-22T05:01:45.406Z,11.10
2018-03-22T05:04:13.978Z,12.50
2018-03-22T05:06:43.301Z,13.77
2018-03-22T05:09:11.922Z,14.87
2018-03-22T05:11:41.241Z,13.53
2018-03-22T05:14:09.797Z,14.77
2018-03-22T05:16:38.405Z,14.00
2018-03-22T05:19:06.958Z,15.17
2018-03-22T05:21:35.509Z,17.83
2018-03-22T05:24:04.150Z,13.83
2018-03-22T05:26:32.714Z,15.37
2018-03-22T05:29:01.282Z,16.83
2018-03-22T05:31:30.838Z,22.33
2018-03-22T05:33:59.398Z,32.63
2018-03-22T05:36:28.661Z,31.53
2018-03-22T05:38:58.149Z,26.67
2018-03-22T05:41:26.753Z,22.60
2018-03-22T05:43:56.082Z,17.57
2018-03-22T05:46:24.690Z,13.63
2018-03-22T05:48:53.279Z,15.67
2018-03-22T05:51:21.838Z,20.67
2018-03-22T05:53:50.459Z,16.20
2018-03-22T05:56:19.032Z,18.03
2018-03-22T05:58:47.615Z,31.70
2018-03-22T06:01:16.488Z,36.70
2018-03-22T06:03:45.051Z,40.73
2018-03-22T06:06:13.623Z,34.67
2018-03-22T06:08:42.233Z,16.13
2018-03-22T06:11:10.798Z,22.87
2018-03-22T06:13:39.362Z,19.60
2018-03-22T06:16:08.897Z,13.13
2018-03-22T06:18:37.477Z,21.17
2018-03-22T06:21:06.048Z,18.63
2018-03-22T06:23:34.839Z,17.07
2018-03-22T06:26:03.406Z,16.50
2018-03-22T06:28:32.728Z,18.43
2018-03-22T06:31:01.562Z,17.50
2018-03-22T06:33:30.139Z,17.63
2018-03-22T06:35:58.729Z,18.20
2018-03-22T06:38:27.707Z,20.00
2018-03-22T06:40:56.270Z,21.53
2018-03-22T06:43:24.832Z,17.70
2018-03-22T06:45:53.590Z,23.67
2018-03-22T06:48:22.161Z,23.87
2018-03-22T06:50:52.658Z,14.50
2018-03-22T06:53:21.269Z,14.90
2018-03-22T06:55:49.836Z,8.80
2018-03-22T06:58:18.400Z,7.43
2018-03-22T07:00:47.219Z,12.17
2018-03-22T07:03:15.781Z,12.07
2018-03-22T07:05:44.346Z,11.43
2018-03-22T07:08:12.962Z,9.67
2018-03-22T07:10:41.530Z,11.63
2018-03-22T07:13:10.094Z,11.70
2018-03-22T07:15:39.692Z,9.77
2018-03-22T07:18:09.029Z,10.47
2018-03-22T07:20:37.602Z,8.40
2018-03-22T07:23:06.222Z,13.07
2018-03-22T07:25:35.210Z,23.13
2018-03-22T07:28:03.773Z,24.17
2018-03-22T07:30:32.688Z,21.80
2018-03-22T07:33:01.277Z,20.47
2018-03-22T07:35:29.850Z,43.00
2018-03-22T07:37:58.756Z,17.30
2018-03-22T07:40:28.096Z,13.40
2018-03-22T07:43:02.207Z,13.53
2018-03-22T07:45:30.791Z,13.63
2018-03-22T07:47:59.371Z,12.93
2018-03-22T07:50:42.809Z,13.73
2018-03-22T07:53:12.149Z,15.20
2018-03-22T07:55:41.670Z,14.50
2018-03-22T07:58:10.426Z,15.83
2018-03-22T08:00:39.047Z,15.00
2018-03-22T08:03:16.753Z,12.47
2018-03-22T08:05:46.279Z,12.90
2018-03-22T08:08:16.726Z,11.17
2018-03-22T08:10:46.957Z,13.27
2018-03-22T08:13:15.534Z,10.90
2018-03-22T08:15:44.130Z,9.40
2018-03-22T08:18:12.761Z,8.70
2018-03-22T08:20:41.481Z,10.40
2018-03-22T08:23:10.848Z,8.43
2018-03-22T08:25:39.492Z,11.27
2018-03-22T08:28:08.069Z,9.93
2018-03-22T08:30:36.689Z,6.63
2018-03-22T08:33:05.591Z,6.97
2018-03-22T08:35:34.173Z,7.93
2018-03-22T08:38:02.761Z,11.40
2018-03-22T08:40:31.498Z,7.80
2018-03-22T08:43:00.070Z,7.53
2018-03-22T08:45:28.721Z,8.67
2018-03-22T08:47:57.355Z,9.37
2018-03-22T08:50:25.930Z,7.97
2018-03-22T08:52:54.505Z,6.17
2018-03-22T08:55:24.069Z,8.80
2018-03-22T08:57:52.647Z,5.83
2018-03-22T09:00:21.295Z,8.17
2018-03-22T09:02:49.924Z,7.77
2018-03-22T09:05:18.499Z,5.03
2018-03-22T09:07:47.061Z,6.53
2018-03-22T09:10:15.838Z,6.37
2018-03-22T09:12:44.405Z,5.17
2018-03-22T09:15:12.984Z,8.33
2018-03-22T09:17:42.505Z,7.73
2018-03-22T09:20:11.090Z,12.20
2018-03-22T09:22:39.703Z,11.47
2018-03-22T09:25:08.331Z,10.97
2018-03-22T09:27:37.676Z,11.83
2018-03-22T09:30:06.255Z,11.83
2018-03-22T09:32:35.077Z,11.23
2018-03-22T09:35:03.657Z,12.17
2018-03-22T09:37:32.252Z,11.03
2018-03-22T09:40:00.884Z,7.63
2018-03-22T09:42:29.474Z,9.83
2018-03-22T09:44:58.056Z,8.60
2018-03-22T09:47:26.667Z,9.23
2018-03-22T09:49:55.240Z,14.63
2018-03-22T09:52:23.817Z,13.00
2018-03-22T09:54:52.631Z,10.17
2018-03-22T09:57:21.227Z,8.20
2018-03-22T09:59:49.794Z,8.93
2018-03-22T10:02:18.417Z,9.13
2018-03-22T10:04:47.745Z,13.17
2018-03-22T10:07:16.318Z,20.70
2018-03-22T10:09:44.932Z,25.60
2018-03-22T10:12:13.509Z,24.17
2018-03-22T10:14:42.084Z,13.87
2018-03-22T10:17:10.713Z,17.27
2018-03-22T10:19:39.295Z,23.83
2018-03-22T10:22:07.868Z,12.37
2018-03-22T10:24:36.657Z,10.60
2018-03-22T10:27:05.265Z,11.20
2018-03-22T10:29:34.603Z,9.30
2018-03-22T10:32:03.374Z,6.67
2018-03-22T10:34:32.709Z,9.43
2018-03-22T10:37:01.287Z,10.63
2018-03-22T10:39:29.905Z,15.20
2018-03-22T10:41:58.510Z,19.37
2018-03-22T10:44:27.858Z,12.60
2018-03-22T10:46:56.469Z,13.83
2018-03-22T10:49:25.069Z,14.50
2018-03-22T10:51:53.657Z,13.00
2018-03-22T10:54:23.102Z,11.17
2018-03-22T10:56:51.681Z,17.07
2018-03-22T10:59:20.262Z,17.60
2018-03-22T11:01:54.346Z,17.23
2018-03-22T11:04:23.695Z,19.13
2018-03-22T11:06:52.288Z,10.97
2018-03-22T11:09:20.979Z,12.50
2018-03-22T11:11:49.554Z,13.60
2018-03-22T11:14:18.154Z,11.43
2018-03-22T11:16:46.921Z,10.57
2018-03-22T11:19:15.516Z,12.33
2018-03-22T11:21:44.117Z,11.00
2018-03-22T11:24:12.899Z,11.37
2018-03-22T11:26:41.480Z,14.13
2018-03-22T11:29:10.067Z,13.27
2018-03-22T11:31:38.700Z,14.20
2018-03-22T11:34:07.276Z,11.37
2018-03-22T11:36:36.621Z,10.83
2018-03-22T11:39:05.445Z,12.63
2018-03-22T11:41:34.784Z,12.60
2018-03-22T11:44:03.363Z,15.83
2018-03-22T11:46:31.992Z,13.83
2018-03-22T11:49:00.588Z,12.87
2018-03-22T11:51:29.170Z,14.10
2018-03-22T11:53:57.800Z,13.30
2018-03-22T11:56:26.402Z,14.90
2018-03-22T11:58:54.980Z,13.23
2018-03-22T12:01:23.799Z,14.60
2018-03-22T12:03:52.383Z,12.67
2018-03-22T12:06:20.973Z,11.30
2018-03-22T12:08:49.594Z,14.13
2018-03-22T12:11:18.953Z,13.03
2018-03-22T12:13:47.535Z,31.83
2018-03-22T12:16:17.056Z,12.00
2018-03-22T12:18:45.633Z,10.40
2018-03-22T12:21:14.211Z,14.03
2018-03-22T12:23:43.170Z,12.37
2018-03-22T12:26:11.742Z,14.90
2018-03-22T12:28:40.318Z,13.67
2018-03-22T12:31:08.952Z,87.33
2018-03-22T12:33:37.537Z,46.53
2018-03-22T12:36:06.122Z,19.00
2018-03-22T12:38:35.007Z,20.60
2018-03-22T12:41:03.601Z,18.23
2018-03-22T12:43:32.214Z,14.53
2018-03-22T12:46:00.935Z,13.70
2018-03-22T12:48:29.513Z,15.43
2018-03-22T12:50:58.090Z,14.53
2018-03-22T12:53:26.724Z,13.53
2018-03-22T12:55:55.313Z,11.67
2018-03-22T12:58:23.897Z,11.43
2018-03-22T13:00:52.774Z,12.00
2018-03-22T13:03:21.360Z,12.20
2018-03-22T13:05:49.947Z,13.93
2018-03-22T13:08:18.578Z,17.57
2018-03-22T13:10:47.170Z,15.33
2018-03-22T13:13:15.755Z,19.67
2018-03-22T13:15:44.381Z,275.50
2018-03-22T13:18:12.977Z,283.50
2018-03-22T13:20:41.561Z,387.30
2018-03-22T13:23:10.535Z,151.87
2018-03-22T13:25:39.122Z,29.67
2018-03-22T13:28:08.473Z,41.90
2018-03-22T13:30:37.103Z,26.33
2018-03-22T13:33:05.688Z,17.27
2018-03-22T13:35:34.265Z,9.70
2018-03-22T13:38:02.913Z,17.47
2018-03-22T13:40:31.507Z,13.90
2018-03-22T13:43:00.085Z,11.40
2018-03-22T13:45:28.801Z,8.93
2018-03-22T13:47:57.380Z,9.17
2018-03-22T13:50:25.957Z,10.93
2018-03-22T13:52:54.572Z,8.17
2018-03-22T13:55:23.173Z,11.20
2018-03-22T13:57:52.509Z,14.20
2018-03-22T14:00:21.384Z,10.90
2018-03-22T14:02:50.737Z,12.53
2018-03-22T14:05:19.318Z,13.57
2018-03-22T14:07:48.306Z,12.73
2018-03-22T14:10:16.889Z,11.57
2018-03-22T14:12:45.478Z,11.97
2018-03-22T14:15:14.474Z,13.27
2018-03-22T14:17:43.054Z,20.73
2018-03-22T14:20:11.632Z,21.37
2018-03-22T14:22:40.349Z,18.97
2018-03-22T14:25:08.917Z,19.33
2018-03-22T14:27:38.263Z,15.63
2018-03-22T14:30:06.924Z,14.77
2018-03-22T14:32:36.273Z,14.30
2018-03-22T14:35:04.881Z,12.67
2018-03-22T14:37:33.605Z,10.90
2018-03-22T14:40:02.960Z,10.83
2018-03-22T14:42:31.547Z,10.70
2018-03-22T14:45:00.297Z,9.50
2018-03-22T14:47:28.878Z,9.43
2018-03-22T14:49:57.453Z,20.57
2018-03-22T14:52:26.121Z,16.23
2018-03-22T14:54:55.474Z,34.47
2018-03-22T14:57:24.066Z,19.90
2018-03-22T14:59:52.859Z,9.83
2018-03-22T15:02:21.457Z,8.33
2018-03-22T15:04:50.275Z,10.57
2018-03-22T15:07:19.842Z,9.80
2018-03-22T15:09:48.446Z,7.63
2018-03-22T15:12:17.037Z,10.47
2018-03-22T15:14:47.159Z,9.40
2018-03-22T15:17:16.525Z,8.23
2018-03-22T15:19:45.110Z,8.47
2018-03-22T15:22:13.759Z,8.47
2018-03-22T15:24:42.343Z,9.57
2018-03-22T15:27:11.721Z,8.47
2018-03-22T15:29:41.118Z,7.80
2018-03-22T15:32:10.488Z,9.30
2018-03-22T15:34:39.072Z,9.37
2018-03-22T15:37:07.858Z,9.30
2018-03-22T15:39:36.428Z,11.03
2018-03-22T15:42:05.021Z,11.20
2018-03-22T15:44:33.733Z,17.37
2018-03-22T15:47:02.319Z,12.67
2018-03-22T15:49:30.892Z,10.70
2018-03-22T15:51:59.779Z,8.30
2018-03-22T15:54:28.365Z,9.77
2018-03-22T15:57:03.628Z,8.53
2018-03-22T15:59:32.970Z,9.30
2018-03-22T16:02:01.540Z,7.53
2018-03-22T16:04:30.376Z,12.03
2018-03-22T16:06:58.956Z,14.00
2018-03-22T16:09:27.537Z,8.57
2018-03-22T16:11:56.156Z,12.20
2018-03-22T16:14:25.498Z,13.10
2018-03-22T16:16:54.069Z,13.23
2018-03-22T16:19:22.878Z,9.20
2018-03-22T16:21:51.466Z,12.50
2018-03-22T16:24:20.042Z,12.10
2018-03-22T16:26:49.026Z,12.00
2018-03-22T16:29:17.605Z,12.17
2018-03-22T16:31:46.179Z,7.40
2018-03-22T16:34:14.802Z,8.10
2018-03-22T16:36:44.163Z,7.70
2018-03-22T16:39:12.741Z,9.53
2018-03-22T16:41:43.822Z,9.30
2018-03-22T16:44:13.174Z,11.23
2018-03-22T16:46:41.750Z,7.13
2018-03-22T16:49:10.381Z,10.53
2018-03-22T16:51:38.977Z,9.50
2018-03-22T16:54:08.322Z,36.13
2018-03-22T16:56:36.932Z,13.40
2018-03-22T16:59:05.532Z,21.93
2018-03-22T17:01:34.106Z,10.63
2018-03-22T17:04:02.814Z,9.20
2018-03-22T17:06:31.413Z,10.27
2018-03-22T17:08:59.990Z,8.27
2018-03-22T17:11:28.778Z,11.00
2018-03-22T17:13:57.360Z,8.53
2018-03-22T17:16:25.947Z,19.20
2018-03-22T17:18:54.737Z,37.23
2018-03-22T17:21:23.329Z,24.00
2018-03-22T17:23:51.914Z,26.17
2018-03-22T17:26:20.542Z,88.80
2018-03-22T17:28:49.126Z,30.40
2018-03-22T17:31:17.701Z,27.20
2018-03-22T17:33:46.546Z,12.60
2018-03-22T17:36:15.149Z,18.20
2018-03-22T17:38:43.723Z,8.83
2018-03-22T17:41:12.605Z,22.43
2018-03-22T17:43:41.195Z,9.97
2018-03-22T17:46:09.771Z,9.47
2018-03-22T17:48:38.417Z,9.93
2018-03-22T17:51:06.997Z,9.40
2018-03-22T17:53:35.561Z,8.77
2018-03-22T17:56:05.018Z,9.83
2018-03-22T17:58:33.610Z,9.17
2018-03-22T18:01:02.196Z,9.40
2018-03-22T18:03:30.981Z,11.77
2018-03-22T18:05:59.585Z,6.00
2018-03-22T18:08:28.947Z,6.93
2018-03-22T18:10:57.753Z,7.37
2018-03-22T18:13:26.365Z,10.37
2018-03-22T18:15:55.719Z,10.90
2018-03-22T18:18:24.529Z,9.17
2018-03-22T18:20:53.105Z,8.30
2018-03-22T18:23:21.678Z,10.87
2018-03-22T18:25:50.482Z,9.80
2018-03-22T18:28:19.066Z,11.10
2018-03-22T18:30:47.642Z,11.67
2018-03-22T18:33:16.440Z,11.07
2018-03-22T18:35:45.026Z,10.93
2018-03-22T18:38:14.363Z,8.60
2018-03-22T18:40:43.800Z,9.97
2018-03-22T18:43:12.421Z,10.20
2018-03-22T18:45:40.994Z,10.83
2018-03-22T18:48:09.779Z,10.73
2018-03-22T18:50:38.363Z,10.37
2018-03-22T18:53:06.941Z,9.53
2018-03-22T18:55:35.948Z,9.50
2018-03-22T18:58:05.296Z,12.47
2018-03-22T19:00:33.897Z,8.03
2018-03-22T19:03:03.390Z,11.63
2018-03-22T19:05:32.735Z,9.73
2018-03-22T19:08:01.310Z,11.17
2018-03-22T19:10:30.041Z,11.67
2018-03-22T19:12:58.614Z,10.77
2018-03-22T19:15:27.200Z,12.70
2018-03-22T19:17:56.098Z,14.17
2018-03-22T19:20:24.678Z,13.10
2018-03-22T19:22:53.262Z,11.83
2018-03-22T19:25:22.017Z,9.87
2018-03-22T19:27:50.582Z,8.77
2018-03-22T19:30:19.935Z,11.07
2018-03-22T19:32:48.572Z,10.97
2018-03-22T19:35:17.924Z,10.10
2018-03-22T19:37:46.497Z,8.43
2018-03-22T19:40:15.207Z,9.87
2018-03-22T19:42:43.805Z,10.30
2018-03-22T19:45:13.144Z,8.10
2018-03-22T19:47:41.766Z,8.80
2018-03-22T19:50:11.102Z,8.37
2018-03-22T19:52:39.668Z,8.27
2018-03-22T19:55:08.293Z,9.30
2018-03-22T19:57:36.866Z,8.03
2018-03-22T20:00:05.506Z,8.13
2018-03-22T20:02:34.977Z,8.50
2018-03-22T20:05:03.582Z,9.03
2018-03-22T20:07:32.913Z,8.70
2018-03-22T20:10:01.638Z,8.20
2018-03-22T20:12:30.217Z,8.57
2018-03-22T20:14:58.803Z,7.80
2018-03-22T20:17:27.509Z,7.50
2018-03-22T20:19:56.085Z,8.23
2018-03-22T20:22:24.668Z,8.53
2018-03-22T20:24:53.646Z,8.10
2018-03-22T20:27:22.229Z,9.07
2018-03-22T20:29:50.800Z,7.27
2018-03-22T20:32:19.422Z,6.07
2018-03-22T20:34:48.765Z,7.83
2018-03-22T20:37:17.342Z,10.00
2018-03-22T20:39:46.277Z,6.43
2018-03-22T20:42:14.858Z,8.67
2018-03-22T20:44:43.446Z,8.77
2018-03-22T20:47:12.178Z,8.63
2018-03-22T20:49:40.762Z,9.07
2018-03-22T20:52:10.092Z,7.00
2018-03-22T20:54:38.729Z,9.20
2018-03-22T20:57:08.049Z,7.93
2018-03-22T20:59:36.607Z,8.13
2018-03-22T21:02:05.311Z,8.37
2018-03-22T21:04:34.621Z,6.23
2018-03-22T21:07:03.971Z,6.40
2018-03-22T21:09:32.578Z,6.93
2018-03-22T21:12:01.134Z,6.73
2018-03-22T21:14:29.722Z,8.00
2018-03-22T21:16:58.428Z,7.03
2018-03-22T21:19:26.997Z,7.67
2018-03-22T21:21:55.573Z,8.67
2018-03-22T21:24:24.186Z,8.03
2018-03-22T21:26:53.518Z,6.17
2018-03-22T21:29:22.085Z,8.40
2018-03-22T21:31:51.480Z,5.73
2018-03-22T21:34:20.845Z,8.80
2018-03-22T21:36:49.430Z,8.70
2018-03-22T21:39:18.217Z,8.73
2018-03-22T21:42:04.351Z,8.43
2018-03-22T21:44:33.736Z,7.93
2018-03-22T21:50:11.889Z,9.13
2018-03-22T21:52:47.276Z,8.53
2018-03-22T21:55:16.222Z,8.47
2018-03-22T21:57:45.557Z,9.23
2018-03-22T22:00:14.135Z,8.17
2018-03-22T22:02:42.848Z,7.77
2018-03-22T22:05:11.440Z,8.07
2018-03-22T22:07:40.019Z,4.90
2018-03-22T22:10:09.007Z,7.53
2018-03-22T22:12:37.610Z,8.30
2018-03-22T22:15:06.217Z,8.20
2018-03-22T22:17:35.608Z,6.80
2018-03-22T22:20:04.991Z,7.73
2018-03-22T22:22:33.560Z,6.93
2018-03-22T22:25:03.170Z,6.93
2018-03-22T22:27:31.734Z,6.47
2018-03-22T22:30:00.310Z,7.40
2018-03-22T22:32:29.206Z,6.67
2018-03-22T22:34:57.778Z,7.20
2018-03-22T22:37:26.341Z,8.07
2018-03-22T22:39:55.893Z,6.97
2018-03-22T22:42:24.458Z,6.83
2018-03-22T22:44:53.050Z,7.47
2018-03-22T22:47:22.055Z,6.90
2018-03-22T22:49:50.632Z,6.90
2018-03-22T22:52:19.226Z,6.10
2018-03-22T22:54:48.008Z,6.60
2018-03-22T22:57:16.579Z,6.57
2018-03-22T22:59:45.143Z,4.90
2018-03-22T23:02:13.815Z,4.63
2018-03-22T23:04:43.159Z,5.67
2018-03-22T23:07:11.731Z,5.43
2018-03-22T23:09:40.544Z,6.07
2018-03-22T23:12:09.116Z,5.40
2018-03-22T23:14:37.682Z,4.20
2018-03-22T23:17:06.303Z,5.57
2018-03-22T23:19:34.873Z,5.83
2018-03-22T23:22:04.212Z,5.00
2018-03-22T23:24:33.698Z,4.60
2018-03-22T23:27:02.265Z,4.67
2018-03-22T23:29:30.847Z,4.70
2018-03-22T23:31:59.550Z,4.27
2018-03-22T23:34:28.118Z,4.13
2018-03-22T23:36:56.686Z,5.30
2018-03-22T23:39:25.391Z,3.90
2018-03-22T23:41:53.977Z,4.57
2018-03-22T23:44:22.548Z,4.17
2018-03-22T23:46:51.157Z,3.57
2018-03-22T23:49:19.752Z,4.50
2018-03-22T23:51:49.088Z,4.30
2018-03-22T23:54:17.700Z,3.43
2018-03-22T23:56:46.264Z,4.23
2018-03-22T23:59:14.833Z,4.17
